Time,TemperatureF,DewpointF,PressureIn,WindDirection,WindDirectionDegrees,WindSpeedMPH,WindSpeedGustMPH,Humidity,HourlyPrecipIn,Conditions,Clouds,dailyrainin,SoftwareType,DateUTC
2013-05-05 00:12:00,-999.0,-99.9,30.14,North,-999,-999.0,-999.0,-999,-99.99,,,0.00,weatherlink.com 1.10,2013-05-05 04:12:00,
2013-05-05 00:27:00,-999.0,-99.9,30.14,North,-999,-999.0,-999.0,-999,-99.99,,,0.00,weatherlink.com 1.10,2013-05-05 04:27:00,
2013-05-05 00:42:00,-999.0,-99.9,30.14,North,-999,-999.0,-999.0,-999,-99.99,,,0.00,weatherlink.com 1.10,2013-05-05 04:42:00,
2013-05-05 00:57:00,-999.0,-99.9,30.14,North,-999,-999.0,-999.0,-999,-99.99,,,0.00,weatherlink.com 1.10,2013-05-05 04:57:00,
2013-05-05 01:12:00,-999.0,-99.9,30.13,North,-999,-999.0,-999.0,-999,-99.99,,,0.00,weatherlink.com 1.10,2013-05-05 05:12:00,
2013-05-05 01:27:00,-999.0,-99.9,30.13,North,-999,-999.0,-999.0,-999,-99.99,,,0.00,weatherlink.com 1.10,2013-05-05 05:27:00,
2013-05-05 01:42:00,-999.0,-99.9,30.13,North,-999,-999.0,-999.0,-999,-99.99,,,0.00,weatherlink.com 1.10,2013-05-05 05:42:00,
2013-05-05 01:57:00,-999.0,-99.9,30.12,North,-999,-999.0,-999.0,-999,-99.99,,,0.00,weatherlink.com 1.10,2013-05-05 05:57:00,
2013-05-05 02:12:00,-999.0,-99.9,30.12,North,-999,-999.0,-999.0,-999,-99.99,,,0.00,weatherlink.com 1.10,2013-05-05 06:12:00,
2013-05-05 02:27:00,-999.0,-99.9,30.12,North,-999,-999.0,-999.0,-999,-99.99,,,0.00,weatherlink.com 1.10,2013-05-05 06:27:00,
2013-05-05 02:42:00,-999.0,-99.9,30.12,North,-999,-999.0,-999.0,-999,-99.99,,,0.00,weatherlink.com 1.10,2013-05-05 06:42:00,
2013-05-05 02:57:00,-999.0,-99.9,30.12,North,-999,-999.0,-999.0,-999,-99.99,,,0.00,weatherlink.com 1.10,2013-05-05 06:57:00,
2013-05-05 03:12:00,-999.0,-99.9,30.12,North,-999,-999.0,-999.0,-999,-99.99,,,0.00,weatherlink.com 1.10,2013-05-05 07:12:00,
2013-05-05 03:28:00,-999.0,-99.9,30.12,North,-999,-999.0,-999.0,-999,-99.99,,,0.00,weatherlink.com 1.10,2013-05-05 07:28:00,
2013-05-05 03:42:00,-999.0,-99.9,30.12,North,-999,-999.0,-999.0,-999,-99.99,,,0.00,weatherlink.com 1.10,2013-05-05 07:42:00,
2013-05-05 03:57:00,-999.0,-99.9,30.12,North,-999,-999.0,-999.0,-999,-99.99,,,0.00,weatherlink.com 1.10,2013-05-05 07:57:00,
2013-05-05 04:12:00,-999.0,-99.9,30.13,North,-999,-999.0,-999.0,-999,-99.99,,,0.00,weatherlink.com 1.10,2013-05-05 08:12:00,
2013-05-05 04:27:00,-999.0,-99.9,30.12,North,-999,-999.0,-999.0,-999,-99.99,,,0.00,weatherlink.com 1.10,2013-05-05 08:27:00,
2013-05-05 04:42:00,-999.0,-99.9,30.12,North,-999,-999.0,-999.0,-999,-99.99,,,0.00,weatherlink.com 1.10,2013-05-05 08:42:00,
2013-05-05 04:57:00,-999.0,-99.9,30.12,North,-999,-999.0,-999.0,-999,-99.99,,,0.00,weatherlink.com 1.10,2013-05-05 08:57:00,
2013-05-05 05:12:00,-999.0,-99.9,30.13,North,-999,-999.0,-999.0,-999,-99.99,,,0.00,weatherlink.com 1.10,2013-05-05 09:12:00,
2013-05-05 05:27:00,-999.0,-99.9,30.13,North,-999,-999.0,-999.0,-999,-99.99,,,0.00,weatherlink.com 1.10,2013-05-05 09:27:00,
2013-05-05 05:42:00,-999.0,-99.9,30.13,North,-999,-999.0,-999.0,-999,-99.99,,,0.00,weatherlink.com 1.10,2013-05-05 09:42:00,
2013-05-05 05:57:00,-999.0,-99.9,30.14,North,-999,-999.0,-999.0,-999,-99.99,,,0.00,weatherlink.com 1.10,2013-05-05 09:57:00,
2013-05-05 06:12:00,-999.0,-99.9,30.14,North,-999,-999.0,-999.0,-999,-99.99,,,0.00,weatherlink.com 1.10,2013-05-05 10:12:00,
2013-05-05 06:27:00,-999.0,-99.9,30.14,North,-999,-999.0,-999.0,-999,-99.99,,,0.00,weatherlink.com 1.10,2013-05-05 10:27:00,
2013-05-05 06:42:00,-999.0,-99.9,30.15,North,-999,-999.0,-999.0,-999,-99.99,,,0.00,weatherlink.com 1.10,2013-05-05 10:42:00,
2013-05-05 06:57:00,-999.0,-99.9,30.15,North,-999,-999.0,-999.0,-999,-99.99,,,0.00,weatherlink.com 1.10,2013-05-05 10:57:00,
2013-05-05 07:12:00,-999.0,-99.9,30.16,North,-999,-999.0,-999.0,-999,-99.99,,,0.00,weatherlink.com 1.10,2013-05-05 11:12:00,
2013-05-05 07:27:00,55.8,38.0,30.16,SW,236,0.0,-999.0,51,-99.99,,,0.00,weatherlink.com 1.10,2013-05-05 11:27:00,
2013-05-05 07:42:00,57.9,44.0,30.16,SW,236,0.0,-999.0,60,-99.99,,,0.00,weatherlink.com 1.10,2013-05-05 11:42:00,
2013-05-05 07:57:00,60.8,47.0,30.16,SW,225,2.0,-999.0,61,-99.99,,,0.00,weatherlink.com 1.10,2013-05-05 11:57:00,
2013-05-05 08:12:00,61.7,48.0,30.17,SSE,165,0.0,-999.0,61,-99.99,,,0.00,weatherlink.com 1.10,2013-05-05 12:12:00,
2013-05-05 08:27:00,62.9,49.0,30.17,South,171,0.0,-999.0,60,-99.99,,,0.00,weatherlink.com 1.10,2013-05-05 12:27:00,
2013-05-05 08:42:00,64.4,49.0,30.18,WSW,239,0.0,-999.0,58,-99.99,,,0.00,weatherlink.com 1.10,2013-05-05 12:42:00,
2013-05-05 08:57:00,67.1,50.0,30.17,WSW,241,0.0,-999.0,54,-99.99,,,0.00,weatherlink.com 1.10,2013-05-05 12:57:00,
2013-05-05 09:12:00,68.0,50.0,30.17,SW,235,0.0,-999.0,53,-99.99,,,0.00,weatherlink.com 1.10,2013-05-05 13:12:00,
2013-05-05 09:27:00,68.9,50.0,30.17,SW,229,0.0,-999.0,51,-99.99,,,0.00,weatherlink.com 1.10,2013-05-05 13:27:00,
2013-05-05 09:42:00,71.8,50.0,30.17,West,271,0.0,-999.0,47,-99.99,,,0.00,weatherlink.com 1.10,2013-05-05 13:42:00,
2013-05-05 09:57:00,71.7,51.0,30.17,West,261,0.0,-999.0,48,-99.99,,,0.00,weatherlink.com 1.10,2013-05-05 13:57:00,
2013-05-05 10:12:00,73.2,51.0,30.16,West,267,0.0,-999.0,45,-99.99,,,0.00,weatherlink.com 1.10,2013-05-05 14:12:00,
2013-05-05 10:27:00,74.9,49.0,30.16,NW,310,0.0,-999.0,40,-99.99,,,0.00,weatherlink.com 1.10,2013-05-05 14:27:00,
2013-05-05 10:42:00,74.4,48.0,30.16,SW,229,0.0,-999.0,39,-99.99,,,0.00,weatherlink.com 1.10,2013-05-05 14:42:00,
2013-05-05 10:57:00,75.7,48.0,30.16,SE,138,0.0,-999.0,37,-99.99,,,0.00,weatherlink.com 1.10,2013-05-05 14:57:00,
2013-05-05 11:12:00,74.4,48.0,30.15,ESE,113,2.0,-999.0,39,-99.99,,,0.00,weatherlink.com 1.10,2013-05-05 15:12:00,
2013-05-05 11:27:00,75.5,47.0,30.15,SSW,205,0.0,-999.0,37,-99.99,,,0.00,weatherlink.com 1.10,2013-05-05 15:27:00,
2013-05-05 11:42:00,76.4,48.0,30.15,ESE,114,4.0,-999.0,37,-99.99,,,0.00,weatherlink.com 1.10,2013-05-05 15:42:00,
2013-05-05 11:57:00,76.4,47.0,30.15,SE,130,2.0,-999.0,36,-99.99,,,0.00,weatherlink.com 1.10,2013-05-05 15:57:00,
2013-05-05 12:12:00,76.3,47.0,30.14,ENE,75,3.0,-999.0,35,-99.99,,,0.00,weatherlink.com 1.10,2013-05-05 16:12:00,
2013-05-05 12:27:00,76.6,46.0,30.14,NE,49,3.0,-999.0,34,-99.99,,,0.00,weatherlink.com 1.10,2013-05-05 16:27:00,
2013-05-05 12:42:00,76.4,46.0,30.13,East,99,3.0,-999.0,34,-99.99,,,0.00,weatherlink.com 1.10,2013-05-05 16:42:00,
2013-05-05 12:57:00,76.6,48.0,30.13,ENE,69,5.0,-999.0,36,-99.99,,,0.00,weatherlink.com 1.10,2013-05-05 16:57:00,
2013-05-05 13:12:00,77.6,47.0,30.12,ESE,105,4.0,-999.0,34,-99.99,,,0.00,weatherlink.com 1.10,2013-05-05 17:12:00,
2013-05-05 13:27:00,77.9,44.0,30.11,SE,125,2.0,-999.0,30,-99.99,,,0.00,weatherlink.com 1.10,2013-05-05 17:27:00,
2013-05-05 13:42:00,77.8,44.0,30.11,East,84,8.0,-999.0,30,-99.99,,,0.00,weatherlink.com 1.10,2013-05-05 17:42:00,
2013-05-05 13:57:00,77.1,44.0,30.11,SSE,148,6.0,-999.0,31,-99.99,,,0.00,weatherlink.com 1.10,2013-05-05 17:57:00,
2013-05-05 14:12:00,77.4,43.0,30.11,ENE,63,1.0,-999.0,29,-99.99,,,0.00,weatherlink.com 1.10,2013-05-05 18:12:00,
2013-05-05 14:27:00,77.1,42.0,30.11,East,101,10.0,-999.0,28,-99.99,,,0.00,weatherlink.com 1.10,2013-05-05 18:27:00,
2013-05-05 14:42:00,76.6,44.0,30.10,East,92,9.0,-999.0,31,-99.99,,,0.00,weatherlink.com 1.10,2013-05-05 18:42:00,
2013-05-05 14:57:00,77.9,44.0,30.10,ESE,109,0.0,-999.0,30,-99.99,,,0.00,weatherlink.com 1.10,2013-05-05 18:57:00,
2013-05-05 15:12:00,77.1,43.0,30.09,East,87,5.0,-999.0,30,-99.99,,,0.00,weatherlink.com 1.10,2013-05-05 19:12:00,
2013-05-05 15:27:00,78.0,44.0,30.09,ESE,102,4.0,-999.0,30,-99.99,,,0.00,weatherlink.com 1.10,2013-05-05 19:27:00,
2013-05-05 15:42:00,78.4,44.0,30.08,East,82,0.0,-999.0,29,-99.99,,,0.00,weatherlink.com 1.10,2013-05-05 19:42:00,
2013-05-05 15:57:00,77.8,44.0,30.07,ENE,69,5.0,-999.0,30,-99.99,,,0.00,weatherlink.com 1.10,2013-05-05 19:57:00,
2013-05-05 16:12:00,77.8,45.0,30.07,East,80,7.0,-999.0,31,-99.99,,,0.00,weatherlink.com 1.10,2013-05-05 20:12:00,
2013-05-05 16:27:00,78.4,44.0,30.06,ENE,63,6.0,-999.0,30,-99.99,,,0.00,weatherlink.com 1.10,2013-05-05 20:27:00,
2013-05-05 16:42:00,78.5,43.0,30.06,SE,146,3.0,-999.0,28,-99.99,,,0.00,weatherlink.com 1.10,2013-05-05 20:42:00,
2013-05-05 16:57:00,78.3,43.0,30.06,ENE,67,3.0,-999.0,28,-99.99,,,0.00,weatherlink.com 1.10,2013-05-05 20:57:00,
2013-05-05 17:12:00,78.3,42.0,30.06,East,86,2.0,-999.0,27,-99.99,,,0.00,weatherlink.com 1.10,2013-05-05 21:12:00,
2013-05-05 17:27:00,78.7,43.0,30.05,SSE,155,7.0,-999.0,28,-99.99,,,0.00,weatherlink.com 1.10,2013-05-05 21:27:00,
2013-05-05 17:42:00,78.7,43.0,30.05,ENE,77,5.0,-999.0,28,-99.99,,,0.00,weatherlink.com 1.10,2013-05-05 21:42:00,
2013-05-05 17:57:00,78.9,42.0,30.05,ESE,102,6.0,-999.0,27,-99.99,,,0.00,weatherlink.com 1.10,2013-05-05 21:57:00,
2013-05-05 18:12:00,78.5,41.0,30.05,East,84,0.0,-999.0,26,-99.99,,,0.00,weatherlink.com 1.10,2013-05-05 22:12:00,
2013-05-05 18:27:00,78.1,40.0,30.05,ENE,69,5.0,-999.0,26,-99.99,,,0.00,weatherlink.com 1.10,2013-05-05 22:27:00,
2013-05-05 18:42:00,77.5,42.0,30.04,ESE,102,1.0,-999.0,28,-99.99,,,0.00,weatherlink.com 1.10,2013-05-05 22:42:00,
2013-05-05 18:57:00,77.1,42.0,30.05,ESE,107,3.0,-999.0,28,-99.99,,,0.00,weatherlink.com 1.10,2013-05-05 22:57:00,
2013-05-05 19:12:00,76.8,41.0,30.05,East,82,2.0,-999.0,28,-99.99,,,0.00,weatherlink.com 1.10,2013-05-05 23:12:00,
2013-05-05 19:27:00,76.2,42.0,30.05,ESE,123,0.0,-999.0,29,-99.99,,,0.00,weatherlink.com 1.10,2013-05-05 23:27:00,
2013-05-05 19:42:00,73.5,48.0,30.05,East,90,5.0,-999.0,41,-99.99,,,0.00,weatherlink.com 1.10,2013-05-05 23:42:00,
2013-05-05 19:57:00,71.2,49.0,30.05,ENE,57,2.0,-999.0,45,-99.99,,,0.00,weatherlink.com 1.10,2013-05-05 23:57:00,
2013-05-05 20:12:00,70.1,49.0,30.05,NE,36,5.0,-999.0,47,-99.99,,,0.00,weatherlink.com 1.10,2013-05-06 00:12:00,
2013-05-05 20:27:00,69.2,48.0,30.05,NE,51,6.0,-999.0,47,-99.99,,,0.00,weatherlink.com 1.10,2013-05-06 00:27:00,
2013-05-05 20:42:00,68.2,48.0,30.06,NE,49,6.0,-999.0,48,-99.99,,,0.00,weatherlink.com 1.10,2013-05-06 00:42:00,
2013-05-05 20:57:00,67.8,47.0,30.06,East,84,6.0,-999.0,47,-99.99,,,0.00,weatherlink.com 1.10,2013-05-06 00:57:00,
2013-05-05 21:12:00,67.8,46.0,30.07,ENE,69,4.0,-999.0,45,-99.99,,,0.00,weatherlink.com 1.10,2013-05-06 01:12:00,
2013-05-05 21:27:00,67.4,45.0,30.07,ENE,68,0.0,-999.0,45,-99.99,,,0.00,weatherlink.com 1.10,2013-05-06 01:27:00,
2013-05-05 21:42:00,67.0,45.0,30.07,NNE,27,0.0,-999.0,45,-99.99,,,0.00,weatherlink.com 1.10,2013-05-06 01:42:00,
2013-05-05 21:57:00,64.1,46.0,30.08,SE,137,2.0,-999.0,53,-99.99,,,0.00,weatherlink.com 1.10,2013-05-06 01:57:00,
2013-05-05 22:13:00,63.6,46.0,30.08,SE,128,0.0,-999.0,54,-99.99,,,0.00,weatherlink.com 1.10,2013-05-06 02:13:00,
2013-05-05 22:27:00,-999.0,-99.9,30.08,North,-999,-999.0,-999.0,-999,-99.99,,,0.00,weatherlink.com 1.10,2013-05-06 02:27:00,
2013-05-05 22:42:00,-999.0,-99.9,30.08,North,-999,-999.0,-999.0,-999,-99.99,,,0.00,weatherlink.com 1.10,2013-05-06 02:42:00,
2013-05-05 22:57:00,-999.0,-99.9,30.08,North,-999,-999.0,-999.0,-999,-99.99,,,0.00,weatherlink.com 1.10,2013-05-06 02:57:00,
2013-05-05 23:12:00,-999.0,-99.9,30.07,North,-999,-999.0,-999.0,-999,-99.99,,,0.00,weatherlink.com 1.10,2013-05-06 03:12:00,
2013-05-05 23:27:00,-999.0,-99.9,30.07,North,-999,-999.0,-999.0,-999,-99.99,,,0.00,weatherlink.com 1.10,2013-05-06 03:27:00,
2013-05-05 23:42:00,-999.0,-99.9,30.07,North,-999,-999.0,-999.0,-999,-99.99,,,0.00,weatherlink.com 1.10,2013-05-06 03:42:00,
2013-05-05 23:57:00,-999.0,-99.9,30.07,North,-999,-999.0,-999.0,-999,-99.99,,,0.00,weatherlink.com 1.10,2013-05-06 03:57:00,